sensor_id;sensor_type;location;lat;lon;timestamp;temperature;humidity
64961;SHT31;51487;52.266;10.542;2023-02-20T00:00:32;6.06;87.25
64961;SHT31;51487;52.266;10.542;2023-02-20T00:02:58;6.15;87.10
64961;SHT31;51487;52.266;10.542;2023-02-20T00:05:24;6.19;87.04
64961;SHT31;51487;52.266;10.542;2023-02-20T00:07:50;6.13;87.44
64961;SHT31;51487;52.266;10.542;2023-02-20T00:10:17;6.20;87.34
64961;SHT31;51487;52.266;10.542;2023-02-20T00:12:43;6.13;87.36
64961;SHT31;51487;52.266;10.542;2023-02-20T00:15:09;6.26;87.14
64961;SHT31;51487;52.266;10.542;2023-02-20T00:17:34;6.28;87.13
64961;SHT31;51487;52.266;10.542;2023-02-20T00:20:02;6.22;87.32
64961;SHT31;51487;52.266;10.542;2023-02-20T00:22:28;6.16;87.52
64961;SHT31;51487;52.266;10.542;2023-02-20T00:24:53;6.32;87.53
64961;SHT31;51487;52.266;10.542;2023-02-20T00:27:19;6.16;87.97
64961;SHT31;51487;52.266;10.542;2023-02-20T00:29:45;6.18;88.17
64961;SHT31;51487;52.266;10.542;2023-02-20T00:32:11;6.19;88.25
64961;SHT31;51487;52.266;10.542;2023-02-20T00:34:37;6.30;87.87
64961;SHT31;51487;52.266;10.542;2023-02-20T00:37:04;6.32;88.01
64961;SHT31;51487;52.266;10.542;2023-02-20T00:39:30;6.40;87.74
64961;SHT31;51487;52.266;10.542;2023-02-20T00:41:56;6.37;87.57
64961;SHT31;51487;52.266;10.542;2023-02-20T00:44:23;6.41;87.43
64961;SHT31;51487;52.266;10.542;2023-02-20T00:46:49;6.30;87.85
64961;SHT31;51487;52.266;10.542;2023-02-20T00:49:15;6.36;87.90
64961;SHT31;51487;52.266;10.542;2023-02-20T00:51:41;6.34;87.98
64961;SHT31;51487;52.266;10.542;2023-02-20T00:54:06;6.40;87.91
64961;SHT31;51487;52.266;10.542;2023-02-20T00:56:32;6.39;87.89
64961;SHT31;51487;52.266;10.542;2023-02-20T00:58:57;6.40;88.03
64961;SHT31;51487;52.266;10.542;2023-02-20T01:01:23;6.46;88.02
64961;SHT31;51487;52.266;10.542;2023-02-20T01:03:49;6.57;87.56
64961;SHT31;51487;52.266;10.542;2023-02-20T01:06:15;6.54;87.61
64961;SHT31;51487;52.266;10.542;2023-02-20T01:08:41;6.43;88.55
64961;SHT31;51487;52.266;10.542;2023-02-20T01:11:07;6.44;88.16
64961;SHT31;51487;52.266;10.542;2023-02-20T01:13:32;6.57;87.94
64961;SHT31;51487;52.266;10.542;2023-02-20T01:15:58;6.67;87.65
64961;SHT31;51487;52.266;10.542;2023-02-20T01:18:23;6.63;87.76
64961;SHT31;51487;52.266;10.542;2023-02-20T01:20:49;6.63;87.66
64961;SHT31;51487;52.266;10.542;2023-02-20T01:23:14;6.78;87.43
64961;SHT31;51487;52.266;10.542;2023-02-20T01:25:40;6.63;87.77
64961;SHT31;51487;52.266;10.542;2023-02-20T01:28:05;6.67;87.61
64961;SHT31;51487;52.266;10.542;2023-02-20T01:30:31;6.68;87.64
64961;SHT31;51487;52.266;10.542;2023-02-20T01:32:56;6.61;88.08
64961;SHT31;51487;52.266;10.542;2023-02-20T01:35:22;6.71;87.77
64961;SHT31;51487;52.266;10.542;2023-02-20T01:37:47;6.67;87.79
64961;SHT31;51487;52.266;10.542;2023-02-20T01:40:19;6.67;88.00
64961;SHT31;51487;52.266;10.542;2023-02-20T01:42:49;6.61;88.04
64961;SHT31;51487;52.266;10.542;2023-02-20T01:47:45;6.76;87.35
64961;SHT31;51487;52.266;10.542;2023-02-20T01:50:12;6.66;87.79
64961;SHT31;51487;52.266;10.542;2023-02-20T01:52:41;6.63;87.92
64961;SHT31;51487;52.266;10.542;2023-02-20T01:57:54;6.54;88.09
64961;SHT31;51487;52.266;10.542;2023-02-20T02:00:22;6.54;88.05
64961;SHT31;51487;52.266;10.542;2023-02-20T02:03:01;6.61;87.84
64961;SHT31;51487;52.266;10.542;2023-02-20T02:05:30;6.64;87.58
64961;SHT31;51487;52.266;10.542;2023-02-20T02:07:58;6.64;87.57
64961;SHT31;51487;52.266;10.542;2023-02-20T02:10:42;6.61;87.92
64961;SHT31;51487;52.266;10.542;2023-02-20T02:13:11;6.68;87.29
64961;SHT31;51487;52.266;10.542;2023-02-20T02:15:37;6.66;87.45
64961;SHT31;51487;52.266;10.542;2023-02-20T02:18:18;6.61;87.32
64961;SHT31;51487;52.266;10.542;2023-02-20T02:23:53;6.53;86.83
64961;SHT31;51487;52.266;10.542;2023-02-20T02:32:44;6.50;86.26
64961;SHT31;51487;52.266;10.542;2023-02-20T02:38:46;6.49;85.83
64961;SHT31;51487;52.266;10.542;2023-02-20T02:41:39;6.51;85.40
64961;SHT31;51487;52.266;10.542;2023-02-20T02:46:58;6.46;85.52
64961;SHT31;51487;52.266;10.542;2023-02-20T02:52:07;6.50;85.49
64961;SHT31;51487;52.266;10.542;2023-02-20T02:54:34;6.50;85.21
64961;SHT31;51487;52.266;10.542;2023-02-20T02:57:26;6.56;85.03
64961;SHT31;51487;52.266;10.542;2023-02-20T03:03:20;6.57;85.23
64961;SHT31;51487;52.266;10.542;2023-02-20T03:05:57;6.66;84.77
64961;SHT31;51487;52.266;10.542;2023-02-20T03:08:26;6.58;85.08
64961;SHT31;51487;52.266;10.542;2023-02-20T03:11:14;6.61;85.16
64961;SHT31;51487;52.266;10.542;2023-02-20T03:13:51;6.60;85.02
64961;SHT31;51487;52.266;10.542;2023-02-20T03:19:50;6.54;85.49
64961;SHT31;51487;52.266;10.542;2023-02-20T03:22:32;6.56;85.32
64961;SHT31;51487;52.266;10.542;2023-02-20T03:25:11;6.57;85.24
64961;SHT31;51487;52.266;10.542;2023-02-20T03:27:51;6.54;85.48
64961;SHT31;51487;52.266;10.542;2023-02-20T03:30:25;6.61;85.31
64961;SHT31;51487;52.266;10.542;2023-02-20T03:33:04;6.63;85.14
64961;SHT31;51487;52.266;10.542;2023-02-20T03:35:52;6.74;84.72
64961;SHT31;51487;52.266;10.542;2023-02-20T03:38:40;6.77;84.44
64961;SHT31;51487;52.266;10.542;2023-02-20T03:41:27;6.67;84.98
64961;SHT31;51487;52.266;10.542;2023-02-20T03:44:14;6.64;84.76
64961;SHT31;51487;52.266;10.542;2023-02-20T03:46:44;6.61;84.99
64961;SHT31;51487;52.266;10.542;2023-02-20T03:49:16;6.70;84.63
64961;SHT31;51487;52.266;10.542;2023-02-20T03:51:44;6.84;84.32
64961;SHT31;51487;52.266;10.542;2023-02-20T03:54:10;6.81;84.54
64961;SHT31;51487;52.266;10.542;2023-02-20T03:56:44;6.71;84.60
64961;SHT31;51487;52.266;10.542;2023-02-20T03:59:24;6.74;84.94
64961;SHT31;51487;52.266;10.542;2023-02-20T04:01:56;6.81;84.42
64961;SHT31;51487;52.266;10.542;2023-02-20T04:04:32;6.77;84.62
64961;SHT31;51487;52.266;10.542;2023-02-20T04:07:04;6.71;85.02
64961;SHT31;51487;52.266;10.542;2023-02-20T04:09:33;6.74;84.86
64961;SHT31;51487;52.266;10.542;2023-02-20T04:12:21;6.78;84.86
64961;SHT31;51487;52.266;10.542;2023-02-20T04:14:49;6.85;84.50
64961;SHT31;51487;52.266;10.542;2023-02-20T04:17:21;6.78;84.57
64961;SHT31;51487;52.266;10.542;2023-02-20T04:19:48;6.78;84.90
64961;SHT31;51487;52.266;10.542;2023-02-20T04:22:26;6.68;84.88
64961;SHT31;51487;52.266;10.542;2023-02-20T04:24:57;6.77;84.50
64961;SHT31;51487;52.266;10.542;2023-02-20T04:27:24;6.71;85.05
64961;SHT31;51487;52.266;10.542;2023-02-20T04:29:50;6.63;85.45
64961;SHT31;51487;52.266;10.542;2023-02-20T04:32:16;6.66;85.30
64961;SHT31;51487;52.266;10.542;2023-02-20T04:34:42;6.74;85.28
64961;SHT31;51487;52.266;10.542;2023-02-20T04:37:14;6.67;85.34
64961;SHT31;51487;52.266;10.542;2023-02-20T04:39:40;6.73;85.51
64961;SHT31;51487;52.266;10.542;2023-02-20T04:42:06;6.84;85.21
64961;SHT31;51487;52.266;10.542;2023-02-20T04:44:32;6.81;85.15
64961;SHT31;51487;52.266;10.542;2023-02-20T04:47:06;6.73;85.47
64961;SHT31;51487;52.266;10.542;2023-02-20T04:49:32;6.74;85.39
64961;SHT31;51487;52.266;10.542;2023-02-20T04:51:58;6.68;85.79
64961;SHT31;51487;52.266;10.542;2023-02-20T04:54:24;6.66;85.69
64961;SHT31;51487;52.266;10.542;2023-02-20T04:56:50;6.71;85.66
64961;SHT31;51487;52.266;10.542;2023-02-20T04:59:16;6.70;85.66
64961;SHT31;51487;52.266;10.542;2023-02-20T05:01:42;6.63;85.68
64961;SHT31;51487;52.266;10.542;2023-02-20T05:04:14;6.68;85.91
64961;SHT31;51487;52.266;10.542;2023-02-20T05:06:48;6.83;85.55
64961;SHT31;51487;52.266;10.542;2023-02-20T05:09:14;6.76;85.47
64961;SHT31;51487;52.266;10.542;2023-02-20T05:11:40;6.73;85.66
64961;SHT31;51487;52.266;10.542;2023-02-20T05:14:06;6.77;85.62
64961;SHT31;51487;52.266;10.542;2023-02-20T05:16:32;6.80;85.51
64961;SHT31;51487;52.266;10.542;2023-02-20T05:18:57;6.83;85.63
64961;SHT31;51487;52.266;10.542;2023-02-20T05:21:27;6.78;85.44
64961;SHT31;51487;52.266;10.542;2023-02-20T05:24:12;6.76;85.70
64961;SHT31;51487;52.266;10.542;2023-02-20T05:26:38;6.76;85.57
64961;SHT31;51487;52.266;10.542;2023-02-20T05:29:05;6.76;85.84
64961;SHT31;51487;52.266;10.542;2023-02-20T05:31:30;6.74;85.86
64961;SHT31;51487;52.266;10.542;2023-02-20T05:33:56;6.73;86.05
64961;SHT31;51487;52.266;10.542;2023-02-20T05:36:22;6.78;85.67
64961;SHT31;51487;52.266;10.542;2023-02-20T05:38:47;6.78;85.83
64961;SHT31;51487;52.266;10.542;2023-02-20T05:41:17;6.80;85.81
64961;SHT31;51487;52.266;10.542;2023-02-20T05:43:44;6.78;85.66
64961;SHT31;51487;52.266;10.542;2023-02-20T05:46:11;6.88;85.75
64961;SHT31;51487;52.266;10.542;2023-02-20T05:48:36;6.78;85.91
64961;SHT31;51487;52.266;10.542;2023-02-20T05:51:02;6.85;85.70
64961;SHT31;51487;52.266;10.542;2023-02-20T05:53:29;6.88;85.69
64961;SHT31;51487;52.266;10.542;2023-02-20T05:55:55;6.95;85.57
64961;SHT31;51487;52.266;10.542;2023-02-20T05:58:21;6.91;85.49
64961;SHT31;51487;52.266;10.542;2023-02-20T06:00:46;6.85;85.69
64961;SHT31;51487;52.266;10.542;2023-02-20T06:03:16;6.92;85.61
64961;SHT31;51487;52.266;10.542;2023-02-20T06:05:42;6.87;85.57
64961;SHT31;51487;52.266;10.542;2023-02-20T06:08:08;6.92;85.63
64961;SHT31;51487;52.266;10.542;2023-02-20T06:10:33;6.92;85.61
64961;SHT31;51487;52.266;10.542;2023-02-20T06:12:59;6.88;85.71
64961;SHT31;51487;52.266;10.542;2023-02-20T06:15:25;6.98;85.64
64961;SHT31;51487;52.266;10.542;2023-02-20T06:17:51;6.92;85.71
64961;SHT31;51487;52.266;10.542;2023-02-20T06:20:17;6.89;85.63
64961;SHT31;51487;52.266;10.542;2023-02-20T06:22:43;6.88;85.70
64961;SHT31;51487;52.266;10.542;2023-02-20T06:25:09;6.85;85.94
64961;SHT31;51487;52.266;10.542;2023-02-20T06:27:40;6.80;86.25
64961;SHT31;51487;52.266;10.542;2023-02-20T06:30:07;6.85;85.86
64961;SHT31;51487;52.266;10.542;2023-02-20T06:32:33;6.89;85.66
64961;SHT31;51487;52.266;10.542;2023-02-20T06:34:58;6.97;85.51
64961;SHT31;51487;52.266;10.542;2023-02-20T06:37:24;6.91;85.55
64961;SHT31;51487;52.266;10.542;2023-02-20T06:39:49;6.84;85.64
64961;SHT31;51487;52.266;10.542;2023-02-20T06:42:15;6.87;85.76
64961;SHT31;51487;52.266;10.542;2023-02-20T06:44:41;6.88;85.71
64961;SHT31;51487;52.266;10.542;2023-02-20T06:47:07;6.91;85.84
64961;SHT31;51487;52.266;10.542;2023-02-20T06:49:37;6.84;86.07
64961;SHT31;51487;52.266;10.542;2023-02-20T06:52:06;6.87;85.99
64961;SHT31;51487;52.266;10.542;2023-02-20T06:54:32;6.91;85.82
64961;SHT31;51487;52.266;10.542;2023-02-20T06:56:59;6.92;85.80
64961;SHT31;51487;52.266;10.542;2023-02-20T06:59:25;7.01;85.69
64961;SHT31;51487;52.266;10.542;2023-02-20T07:01:51;7.08;85.63
64961;SHT31;51487;52.266;10.542;2023-02-20T07:04:24;7.05;85.67
64961;SHT31;51487;52.266;10.542;2023-02-20T07:06:53;7.07;85.60
64961;SHT31;51487;52.266;10.542;2023-02-20T07:09:18;7.15;85.41
64961;SHT31;51487;52.266;10.542;2023-02-20T07:11:45;7.15;85.20
64961;SHT31;51487;52.266;10.542;2023-02-20T07:14:12;7.28;84.73
64961;SHT31;51487;52.266;10.542;2023-02-20T07:16:37;7.35;84.64
64961;SHT31;51487;52.266;10.542;2023-02-20T07:19:03;7.33;84.59
64961;SHT31;51487;52.266;10.542;2023-02-20T07:21:29;7.35;84.70
64961;SHT31;51487;52.266;10.542;2023-02-20T07:23:54;7.36;84.59
64961;SHT31;51487;52.266;10.542;2023-02-20T07:26:23;7.39;84.62
64961;SHT31;51487;52.266;10.542;2023-02-20T07:28:50;7.47;84.16
64961;SHT31;51487;52.266;10.542;2023-02-20T07:31:16;7.43;84.30
64961;SHT31;51487;52.266;10.542;2023-02-20T07:33:42;7.53;83.88
64961;SHT31;51487;52.266;10.542;2023-02-20T07:36:10;7.57;83.56
64961;SHT31;51487;52.266;10.542;2023-02-20T07:38:36;7.57;83.34
64961;SHT31;51487;52.266;10.542;2023-02-20T07:41:04;7.63;83.22
64961;SHT31;51487;52.266;10.542;2023-02-20T07:43:30;7.60;83.69
64961;SHT31;51487;52.266;10.542;2023-02-20T07:45:56;7.65;83.15
64961;SHT31;51487;52.266;10.542;2023-02-20T07:48:21;7.69;83.27
64961;SHT31;51487;52.266;10.542;2023-02-20T07:50:47;7.73;82.99
64961;SHT31;51487;52.266;10.542;2023-02-20T07:53:15;7.83;82.61
64961;SHT31;51487;52.266;10.542;2023-02-20T07:55:41;7.78;82.57
64961;SHT31;51487;52.266;10.542;2023-02-20T07:58:07;7.93;82.65
64961;SHT31;51487;52.266;10.542;2023-02-20T08:00:33;7.98;81.88
64961;SHT31;51487;52.266;10.542;2023-02-20T08:02:59;7.97;82.62
64961;SHT31;51487;52.266;10.542;2023-02-20T08:05:25;8.01;82.07
64961;SHT31;51487;52.266;10.542;2023-02-20T08:07:52;8.05;81.60
64961;SHT31;51487;52.266;10.542;2023-02-20T08:10:22;8.14;81.31
64961;SHT31;51487;52.266;10.542;2023-02-20T08:12:49;8.25;80.78
64961;SHT31;51487;52.266;10.542;2023-02-20T08:15:17;8.32;80.86
64961;SHT31;51487;52.266;10.542;2023-02-20T08:17:43;8.45;79.68
64961;SHT31;51487;52.266;10.542;2023-02-20T08:20:11;8.49;79.70
64961;SHT31;51487;52.266;10.542;2023-02-20T08:22:37;8.57;79.20
64961;SHT31;51487;52.266;10.542;2023-02-20T08:25:04;8.57;78.85
64961;SHT31;51487;52.266;10.542;2023-02-20T08:27:31;8.60;79.22
64961;SHT31;51487;52.266;10.542;2023-02-20T08:29:57;8.73;78.49
64961;SHT31;51487;52.266;10.542;2023-02-20T08:32:23;8.76;78.33
64961;SHT31;51487;52.266;10.542;2023-02-20T08:34:49;8.76;78.17
64961;SHT31;51487;52.266;10.542;2023-02-20T08:37:14;8.84;77.74
64961;SHT31;51487;52.266;10.542;2023-02-20T08:39:40;8.87;77.49
64961;SHT31;51487;52.266;10.542;2023-02-20T08:42:06;8.87;77.64
64961;SHT31;51487;52.266;10.542;2023-02-20T08:44:32;8.76;78.10
64961;SHT31;51487;52.266;10.542;2023-02-20T08:46:57;8.79;78.08
64961;SHT31;51487;52.266;10.542;2023-02-20T08:49:23;8.81;77.83
64961;SHT31;51487;52.266;10.542;2023-02-20T08:51:54;8.93;77.60
64961;SHT31;51487;52.266;10.542;2023-02-20T08:54:20;9.01;77.28
64961;SHT31;51487;52.266;10.542;2023-02-20T08:56:46;9.00;77.48
64961;SHT31;51487;52.266;10.542;2023-02-20T08:59:11;9.08;77.27
64961;SHT31;51487;52.266;10.542;2023-02-20T09:01:40;9.13;77.07
64961;SHT31;51487;52.266;10.542;2023-02-20T09:04:07;9.21;76.92
64961;SHT31;51487;52.266;10.542;2023-02-20T09:06:33;9.30;76.28
64961;SHT31;51487;52.266;10.542;2023-02-20T09:08:59;9.23;76.68
64961;SHT31;51487;52.266;10.542;2023-02-20T09:11:24;9.20;77.00
64961;SHT31;51487;52.266;10.542;2023-02-20T09:13:50;9.30;76.30
64961;SHT31;51487;52.266;10.542;2023-02-20T09:16:23;9.28;76.32
64961;SHT31;51487;52.266;10.542;2023-02-20T09:18:49;9.25;76.69
64961;SHT31;51487;52.266;10.542;2023-02-20T09:21:18;9.41;76.24
64961;SHT31;51487;52.266;10.542;2023-02-20T09:23:44;9.39;76.40
64961;SHT31;51487;52.266;10.542;2023-02-20T09:26:10;9.55;76.15
64961;SHT31;51487;52.266;10.542;2023-02-20T09:28:36;9.69;75.81
64961;SHT31;51487;52.266;10.542;2023-02-20T09:31:02;9.89;75.12
64961;SHT31;51487;52.266;10.542;2023-02-20T09:33:28;9.93;74.85
64961;SHT31;51487;52.266;10.542;2023-02-20T09:35:54;9.96;74.76
64961;SHT31;51487;52.266;10.542;2023-02-20T09:38:22;10.07;74.64
64961;SHT31;51487;52.266;10.542;2023-02-20T09:40:55;9.92;75.21
64961;SHT31;51487;52.266;10.542;2023-02-20T09:44:07;10.00;75.32
64961;SHT31;51487;52.266;10.542;2023-02-20T09:46:34;9.93;76.27
64961;SHT31;51487;52.266;10.542;2023-02-20T09:49:24;9.83;76.51
64961;SHT31;51487;52.266;10.542;2023-02-20T09:51:55;9.90;76.52
64961;SHT31;51487;52.266;10.542;2023-02-20T09:54:35;9.82;77.04
64961;SHT31;51487;52.266;10.542;2023-02-20T09:57:09;9.92;77.36
64961;SHT31;51487;52.266;10.542;2023-02-20T09:59:41;9.99;77.31
64961;SHT31;51487;52.266;10.542;2023-02-20T10:04:55;9.92;77.39
64961;SHT31;51487;52.266;10.542;2023-02-20T10:07:35;9.82;77.74
64961;SHT31;51487;52.266;10.542;2023-02-20T10:10:22;9.82;78.22
64961;SHT31;51487;52.266;10.542;2023-02-20T10:27:24;9.46;80.34
64961;SHT31;51487;52.266;10.542;2023-02-20T10:29:51;9.49;80.55
64961;SHT31;51487;52.266;10.542;2023-02-20T10:32:29;9.41;80.79
64961;SHT31;51487;52.266;10.542;2023-02-20T10:35:12;9.49;80.89
64961;SHT31;51487;52.266;10.542;2023-02-20T10:37:45;9.52;80.76
64961;SHT31;51487;52.266;10.542;2023-02-20T10:40:30;9.48;81.02
64961;SHT31;51487;52.266;10.542;2023-02-20T10:43:11;9.45;81.24
64961;SHT31;51487;52.266;10.542;2023-02-20T10:46:00;9.55;81.10
64961;SHT31;51487;52.266;10.542;2023-02-20T10:48:32;9.52;81.54
64961;SHT31;51487;52.266;10.542;2023-02-20T10:51:29;9.49;81.85
64961;SHT31;51487;52.266;10.542;2023-02-20T10:54:11;9.46;82.02
64961;SHT31;51487;52.266;10.542;2023-02-20T10:57:01;9.36;82.25
64961;SHT31;51487;52.266;10.542;2023-02-20T11:00:03;9.35;82.59
64961;SHT31;51487;52.266;10.542;2023-02-20T11:02:40;9.41;82.26
64961;SHT31;51487;52.266;10.542;2023-02-20T11:05:17;9.34;82.53
64961;SHT31;51487;52.266;10.542;2023-02-20T11:07:43;9.25;82.90
64961;SHT31;51487;52.266;10.542;2023-02-20T11:10:09;9.28;83.02
64961;SHT31;51487;52.266;10.542;2023-02-20T11:12:50;9.25;82.96
64961;SHT31;51487;52.266;10.542;2023-02-20T11:15:23;9.24;83.23
64961;SHT31;51487;52.266;10.542;2023-02-20T11:17:53;9.23;83.23
64961;SHT31;51487;52.266;10.542;2023-02-20T11:22:57;9.30;83.21
64961;SHT31;51487;52.266;10.542;2023-02-20T11:25:36;9.31;83.27
64961;SHT31;51487;52.266;10.542;2023-02-20T11:28:21;9.32;83.45
64961;SHT31;51487;52.266;10.542;2023-02-20T11:30:58;9.21;83.79
64961;SHT31;51487;52.266;10.542;2023-02-20T11:33:29;9.21;83.93
64961;SHT31;51487;52.266;10.542;2023-02-20T11:36:17;9.27;84.10
64961;SHT31;51487;52.266;10.542;2023-02-20T11:38:44;9.30;84.13
64961;SHT31;51487;52.266;10.542;2023-02-20T11:41:32;9.34;84.12
64961;SHT31;51487;52.266;10.542;2023-02-20T11:46:39;9.41;83.94
64961;SHT31;51487;52.266;10.542;2023-02-20T11:49:22;9.38;84.10
64961;SHT31;51487;52.266;10.542;2023-02-20T11:51:48;9.23;84.65
64961;SHT31;51487;52.266;10.542;2023-02-20T11:54:24;9.24;84.49
64961;SHT31;51487;52.266;10.542;2023-02-20T11:57:12;9.41;84.19
64961;SHT31;51487;52.266;10.542;2023-02-20T11:59:48;9.31;84.14
64961;SHT31;51487;52.266;10.542;2023-02-20T12:05:10;9.23;84.59
64961;SHT31;51487;52.266;10.542;2023-02-20T12:10:41;9.18;84.79
64961;SHT31;51487;52.266;10.542;2023-02-20T12:13:13;9.20;84.58
64961;SHT31;51487;52.266;10.542;2023-02-20T12:15:40;9.15;84.71
64961;SHT31;51487;52.266;10.542;2023-02-20T12:18:35;9.03;84.96
64961;SHT31;51487;52.266;10.542;2023-02-20T12:21:26;9.17;84.83
64961;SHT31;51487;52.266;10.542;2023-02-20T12:26:54;9.08;85.03
64961;SHT31;51487;52.266;10.542;2023-02-20T12:29:48;8.83;85.68
64961;SHT31;51487;52.266;10.542;2023-02-20T12:32:36;8.94;85.49
64961;SHT31;51487;52.266;10.542;2023-02-20T12:35:32;8.88;85.75
64961;SHT31;51487;52.266;10.542;2023-02-20T12:46:50;8.81;86.01
64961;SHT31;51487;52.266;10.542;2023-02-20T13:00:31;8.70;86.69
64961;SHT31;51487;52.266;10.542;2023-02-20T13:03:19;8.75;86.93
64961;SHT31;51487;52.266;10.542;2023-02-20T13:05:49;8.76;86.81
64961;SHT31;51487;52.266;10.542;2023-02-20T13:08:38;8.72;87.17
64961;SHT31;51487;52.266;10.542;2023-02-20T13:11:21;8.80;87.03
64961;SHT31;51487;52.266;10.542;2023-02-20T13:20:09;8.65;88.95
64961;SHT31;51487;52.266;10.542;2023-02-20T13:22:39;8.66;89.17
64961;SHT31;51487;52.266;10.542;2023-02-20T13:25:48;8.59;89.97
64961;SHT31;51487;52.266;10.542;2023-02-20T13:28:21;8.56;90.34
64961;SHT31;51487;52.266;10.542;2023-02-20T13:31:21;8.49;91.39
64961;SHT31;51487;52.266;10.542;2023-02-20T13:36:46;8.53;90.82
64961;SHT31;51487;52.266;10.542;2023-02-20T14:06:20;8.48;90.83
64961;SHT31;51487;52.266;10.542;2023-02-20T14:08:49;8.59;90.27
64961;SHT31;51487;52.266;10.542;2023-02-20T14:11:31;8.59;90.05
64961;SHT31;51487;52.266;10.542;2023-02-20T14:14:19;8.65;89.93
64961;SHT31;51487;52.266;10.542;2023-02-20T14:16:47;8.60;89.86
64961;SHT31;51487;52.266;10.542;2023-02-20T14:19:20;8.67;89.56
64961;SHT31;51487;52.266;10.542;2023-02-20T14:21:46;8.70;89.34
64961;SHT31;51487;52.266;10.542;2023-02-20T14:24:27;8.60;89.71
64961;SHT31;51487;52.266;10.542;2023-02-20T14:26:54;8.72;89.49
64961;SHT31;51487;52.266;10.542;2023-02-20T14:29:32;8.70;89.47
64961;SHT31;51487;52.266;10.542;2023-02-20T14:32:01;8.79;89.18
64961;SHT31;51487;52.266;10.542;2023-02-20T14:34:52;8.77;89.46
64961;SHT31;51487;52.266;10.542;2023-02-20T14:40:28;8.65;89.77
64961;SHT31;51487;52.266;10.542;2023-02-20T14:43:02;8.67;89.72
64961;SHT31;51487;52.266;10.542;2023-02-20T14:45:28;8.72;90.04
64961;SHT31;51487;52.266;10.542;2023-02-20T14:47:59;8.72;89.91
64961;SHT31;51487;52.266;10.542;2023-02-20T14:50:27;8.80;90.00
64961;SHT31;51487;52.266;10.542;2023-02-20T14:53:22;8.80;89.92
64961;SHT31;51487;52.266;10.542;2023-02-20T14:55:50;8.77;90.11
64961;SHT31;51487;52.266;10.542;2023-02-20T14:58:19;8.84;90.15
64961;SHT31;51487;52.266;10.542;2023-02-20T15:00:48;8.80;90.34
64961;SHT31;51487;52.266;10.542;2023-02-20T15:03:24;8.75;90.54
64961;SHT31;51487;52.266;10.542;2023-02-20T15:05:52;8.87;90.20
64961;SHT31;51487;52.266;10.542;2023-02-20T15:08:22;8.80;90.48
64961;SHT31;51487;52.266;10.542;2023-02-20T15:10:54;8.83;90.62
64961;SHT31;51487;52.266;10.542;2023-02-20T15:13:34;8.75;90.76
64961;SHT31;51487;52.266;10.542;2023-02-20T15:16:12;8.67;91.26
64961;SHT31;51487;52.266;10.542;2023-02-20T15:18:41;8.66;91.58
64961;SHT31;51487;52.266;10.542;2023-02-20T15:21:09;8.67;91.48
64961;SHT31;51487;52.266;10.542;2023-02-20T15:23:39;8.69;91.59
64961;SHT31;51487;52.266;10.542;2023-02-20T15:26:32;8.73;91.58
64961;SHT31;51487;52.266;10.542;2023-02-20T15:29:23;8.66;91.61
64961;SHT31;51487;52.266;10.542;2023-02-20T15:32:03;8.55;92.44
64961;SHT31;51487;52.266;10.542;2023-02-20T15:34:35;8.67;92.36
64961;SHT31;51487;52.266;10.542;2023-02-20T15:39:42;8.69;92.06
64961;SHT31;51487;52.266;10.542;2023-02-20T15:42:10;8.66;92.35
64961;SHT31;51487;52.266;10.542;2023-02-20T15:44:36;8.69;92.22
64961;SHT31;51487;52.266;10.542;2023-02-20T15:47:01;8.62;92.57
64961;SHT31;51487;52.266;10.542;2023-02-20T15:49:27;8.67;92.40
64961;SHT31;51487;52.266;10.542;2023-02-20T15:51:53;8.70;92.48
64961;SHT31;51487;52.266;10.542;2023-02-20T15:54:19;8.62;92.66
64961;SHT31;51487;52.266;10.542;2023-02-20T15:56:45;8.62;92.94
64961;SHT31;51487;52.266;10.542;2023-02-20T15:59:12;8.60;92.89
64961;SHT31;51487;52.266;10.542;2023-02-20T16:01:39;8.59;93.11
64961;SHT31;51487;52.266;10.542;2023-02-20T16:04:07;8.59;93.58
64961;SHT31;51487;52.266;10.542;2023-02-20T16:06:33;8.53;93.37
64961;SHT31;51487;52.266;10.542;2023-02-20T16:08:59;8.48;93.89
64961;SHT31;51487;52.266;10.542;2023-02-20T16:11:34;8.45;93.93
64961;SHT31;51487;52.266;10.542;2023-02-20T16:14:02;8.45;93.90
64961;SHT31;51487;52.266;10.542;2023-02-20T16:16:33;8.48;94.21
64961;SHT31;51487;52.266;10.542;2023-02-20T16:19:01;8.44;94.27
64961;SHT31;51487;52.266;10.542;2023-02-20T16:21:27;8.45;94.61
64961;SHT31;51487;52.266;10.542;2023-02-20T16:23:53;8.50;94.44
64961;SHT31;51487;52.266;10.542;2023-02-20T16:26:25;8.41;94.49
64961;SHT31;51487;52.266;10.542;2023-02-20T16:28:57;8.53;93.87
64961;SHT31;51487;52.266;10.542;2023-02-20T16:34:18;8.55;93.99
64961;SHT31;51487;52.266;10.542;2023-02-20T16:36:44;8.50;94.01
64961;SHT31;51487;52.266;10.542;2023-02-20T16:39:09;8.55;93.84
64961;SHT31;51487;52.266;10.542;2023-02-20T16:41:35;8.56;93.58
64961;SHT31;51487;52.266;10.542;2023-02-20T16:44:01;8.59;93.24
64961;SHT31;51487;52.266;10.542;2023-02-20T16:46:26;8.65;92.99
64961;SHT31;51487;52.266;10.542;2023-02-20T16:48:52;8.62;93.19
64961;SHT31;51487;52.266;10.542;2023-02-20T16:51:19;8.62;93.37
64961;SHT31;51487;52.266;10.542;2023-02-20T16:53:46;8.70;92.95
64961;SHT31;51487;52.266;10.542;2023-02-20T16:56:12;8.69;93.05
64961;SHT31;51487;52.266;10.542;2023-02-20T16:58:38;8.67;92.79
64961;SHT31;51487;52.266;10.542;2023-02-20T17:01:04;8.65;93.05
64961;SHT31;51487;52.266;10.542;2023-02-20T17:03:30;8.75;92.92
64961;SHT31;51487;52.266;10.542;2023-02-20T17:05:57;8.80;93.50
64961;SHT31;51487;52.266;10.542;2023-02-20T17:08:25;8.84;93.71
64961;SHT31;51487;52.266;10.542;2023-02-20T17:10:50;8.84;93.52
64961;SHT31;51487;52.266;10.542;2023-02-20T17:13:16;8.80;93.73
64961;SHT31;51487;52.266;10.542;2023-02-20T17:15:41;8.84;93.71
64961;SHT31;51487;52.266;10.542;2023-02-20T17:18:09;8.87;94.01
64961;SHT31;51487;52.266;10.542;2023-02-20T17:20:35;8.72;94.27
64961;SHT31;51487;52.266;10.542;2023-02-20T17:23:01;8.76;94.47
64961;SHT31;51487;52.266;10.542;2023-02-20T17:25:30;8.60;94.87
64961;SHT31;51487;52.266;10.542;2023-02-20T17:27:56;8.56;95.18
64961;SHT31;51487;52.266;10.542;2023-02-20T17:30:23;8.48;95.35
64961;SHT31;51487;52.266;10.542;2023-02-20T17:32:49;8.46;95.44
64961;SHT31;51487;52.266;10.542;2023-02-20T17:35:16;8.41;95.91
64961;SHT31;51487;52.266;10.542;2023-02-20T17:37:41;8.34;96.35
64961;SHT31;51487;52.266;10.542;2023-02-20T17:40:09;8.36;96.21
64961;SHT31;51487;52.266;10.542;2023-02-20T17:42:34;8.29;96.40
64961;SHT31;51487;52.266;10.542;2023-02-20T17:45:00;8.36;96.18
64961;SHT31;51487;52.266;10.542;2023-02-20T17:47:26;8.35;96.23
64961;SHT31;51487;52.266;10.542;2023-02-20T17:49:54;8.29;96.54
64961;SHT31;51487;52.266;10.542;2023-02-20T17:52:22;8.28;96.40
64961;SHT31;51487;52.266;10.542;2023-02-20T17:54:50;8.34;96.34
64961;SHT31;51487;52.266;10.542;2023-02-20T17:57:18;8.31;96.47